Time;durP1;ratioP1;P1;durP2;ratioP2;P2;SDS_P1;SDS_P2;PMS_P1;PMS_P2;Temp;Humidity;BMP_temperature;BMP_pressure;BME280_temperature;BME280_humidity;BME280_pressure;Samples;Min_cycle;Max_cycle;Signal;HPM_P1;HPM_P2
2023/08/06 00:00:14;;;;;;;6.35;4.30;;;13.20;99.90;;;;;;5027977;28;20021;-80
2023/08/06 00:02:39;;;;;;;6.45;3.75;;;13.20;99.90;;;;;;5027664;28;20021;-80
2023/08/06 00:05:05;;;;;;;8.43;3.45;;;13.20;99.90;;;;;;5029646;28;20510;-80
2023/08/06 00:07:31;;;;;;;4.85;3.45;;;13.20;99.90;;;;;;5019764;28;20026;-81
2023/08/06 00:09:57;;;;;;;6.72;3.40;;;13.30;99.90;;;;;;5029300;28;20522;-79
2023/08/06 00:12:23;;;;;;;5.70;3.10;;;13.20;99.90;;;;;;5029438;28;20028;-79
2023/08/06 00:14:52;;;;;;;6.88;3.63;;;13.20;99.90;;;;;;5029998;28;20374;-81
2023/08/06 00:17:19;;;;;;;5.28;3.17;;;13.30;99.90;;;;;;5023388;28;20022;-78
2023/08/06 00:19:44;;;;;;;4.05;2.63;;;13.30;99.90;;;;;;5030098;28;20032;-82
2023/08/06 00:22:10;;;;;;;11.13;2.95;;;13.40;99.90;;;;;;5029770;28;20044;-79
2023/08/06 00:24:36;;;;;;;5.38;2.70;;;13.40;99.90;;;;;;5030046;28;20113;-81
2023/08/06 00:27:02;;;;;;;3.95;2.53;;;13.40;99.90;;;;;;5030538;28;20606;-80
2023/08/06 00:29:28;;;;;;;3.92;2.70;;;13.40;99.90;;;;;;5034053;28;20021;-80
2023/08/06 00:31:54;;;;;;;5.30;2.83;;;13.40;99.90;;;;;;5061340;23;20486;-90
2023/08/06 00:34:19;;;;;;;3.67;2.55;;;13.40;99.90;;;;;;5055776;28;20025;-87
2023/08/06 00:36:45;;;;;;;5.45;2.58;;;13.40;99.90;;;;;;5046834;28;20497;-90
2023/08/06 00:39:11;;;;;;;5.00;2.90;;;13.40;99.90;;;;;;5055734;28;20060;-91
2023/08/06 00:41:37;;;;;;;7.10;2.42;;;13.40;99.90;;;;;;5039874;28;20022;-91
2023/08/06 00:44:03;;;;;;;6.07;2.38;;;13.40;99.90;;;;;;5031937;28;20025;-89
2023/08/06 00:46:29;;;;;;;3.45;2.38;;;13.40;99.90;;;;;;5035685;28;20033;-89
2023/08/06 00:48:55;;;;;;;3.95;2.25;;;13.40;99.90;;;;;;5034533;28;20481;-91
2023/08/06 00:51:22;;;;;;;4.20;2.45;;;13.40;99.90;;;;;;5034567;28;20053;-89
2023/08/06 00:53:49;;;;;;;3.50;1.92;;;13.40;99.90;;;;;;5035913;28;20021;-89
2023/08/06 00:56:15;;;;;;;4.55;2.53;;;13.40;99.90;;;;;;5035192;28;20029;-88
2023/08/06 00:58:41;;;;;;;5.10;2.47;;;13.40;99.90;;;;;;5029910;28;20501;-88
2023/08/06 01:01:07;;;;;;;2.80;2.20;;;13.40;99.90;;;;;;5027108;28;20072;-89
2023/08/06 01:03:33;;;;;;;5.25;1.90;;;13.40;99.90;;;;;;5035401;28;20417;-90
2023/08/06 01:05:59;;;;;;;4.13;2.15;;;13.40;99.90;;;;;;5035047;28;20393;-88
2023/08/06 01:08:48;;;;;;;3.63;1.88;;;13.40;99.90;;;;;;5035829;28;20458;-88
2023/08/06 01:11:35;;;;;;;4.35;1.90;;;13.40;99.90;;;;;;5027244;28;20029;-90
2023/08/06 01:14:26;;;;;;;3.72;2.05;;;13.40;99.90;;;;;;5034982;28;20017;-87
2023/08/06 01:16:53;;;;;;;3.05;1.70;;;13.40;99.90;;;;;;5034887;28;20025;-87
2023/08/06 01:19:20;;;;;;;6.68;1.92;;;13.40;99.90;;;;;;5035216;28;20032;-92
2023/08/06 01:21:45;;;;;;;6.63;1.60;;;13.30;99.90;;;;;;5021374;28;20026;-90
2023/08/06 01:24:12;;;;;;;4.95;1.67;;;13.30;99.90;;;;;;5033957;28;20028;-89
2023/08/06 01:27:08;;;;;;;4.35;1.70;;;13.30;99.90;;;;;;5034902;28;20032;-89
2023/08/06 01:30:04;;;;;;;5.85;1.92;;;13.30;99.90;;;;;;5030223;28;20028;-89
2023/08/06 01:32:34;;;;;;;4.50;2.13;;;13.30;99.90;;;;;;5033905;28;20037;-90
2023/08/06 01:35:01;;;;;;;5.55;2.03;;;13.30;99.90;;;;;;5034688;28;20188;-88
2023/08/06 01:37:27;;;;;;;4.35;1.70;;;13.30;99.90;;;;;;5034945;28;20025;-90
2023/08/06 01:39:53;;;;;;;4.35;1.50;;;13.20;99.90;;;;;;5033231;28;20035;-89
2023/08/06 01:42:19;;;;;;;1.48;1.20;;;13.20;99.90;;;;;;5034305;28;20105;-88
2023/08/06 01:44:44;;;;;;;3.20;1.80;;;13.00;99.90;;;;;;5035386;28;20108;-89
2023/08/06 01:47:10;;;;;;;2.97;1.30;;;12.90;99.90;;;;;;5034409;28;20065;-90
2023/08/06 01:49:36;;;;;;;2.25;1.67;;;12.80;99.90;;;;;;5032125;28;20029;-90
2023/08/06 01:52:01;;;;;;;2.50;1.80;;;12.60;99.90;;;;;;5030185;28;20026;-90
2023/08/06 01:54:27;;;;;;;2.20;1.52;;;12.50;99.90;;;;;;5019712;28;20104;-90
2023/08/06 01:56:53;;;;;;;5.07;1.60;;;12.50;99.90;;;;;;5034487;28;20049;-89
2023/08/06 01:59:19;;;;;;;4.53;1.63;;;12.40;99.90;;;;;;5031770;28;20056;-88
2023/08/06 02:01:45;;;;;;;5.03;1.77;;;12.30;99.90;;;;;;5059365;23;20052;-81
2023/08/06 02:04:10;;;;;;;4.85;1.90;;;12.30;99.90;;;;;;5052052;28;20139;-80
2023/08/06 02:06:36;;;;;;;4.28;2.15;;;12.30;99.90;;;;;;5051845;28;20039;-80
2023/08/06 02:09:01;;;;;;;3.20;1.67;;;12.20;99.90;;;;;;5051971;28;20025;-80
2023/08/06 02:11:27;;;;;;;5.00;2.10;;;12.10;99.90;;;;;;5039437;28;20079;-82
2023/08/06 02:13:53;;;;;;;6.80;2.00;;;12.10;99.90;;;;;;5032021;28;20425;-80
2023/08/06 02:16:18;;;;;;;4.90;2.10;;;12.10;99.90;;;;;;5025144;28;20466;-79
2023/08/06 02:18:44;;;;;;;2.58;1.70;;;12.00;99.90;;;;;;5030493;28;20063;-80
2023/08/06 02:21:10;;;;;;;4.57;1.95;;;11.90;99.90;;;;;;5032031;28;20428;-80
2023/08/06 02:23:35;;;;;;;7.82;2.45;;;11.90;99.90;;;;;;5030834;28;20021;-80
2023/08/06 02:26:02;;;;;;;3.75;2.15;;;11.80;99.90;;;;;;5031917;28;20505;-81
2023/08/06 02:28:29;;;;;;;3.60;2.45;;;11.80;99.90;;;;;;5031605;28;20025;-81
2023/08/06 02:30:54;;;;;;;4.15;2.10;;;11.80;99.90;;;;;;5027625;28;20030;-81
2023/08/06 02:33:20;;;;;;;7.03;2.88;;;11.60;99.90;;;;;;5030530;28;20033;-81
2023/08/06 02:35:46;;;;;;;3.90;2.22;;;11.70;99.90;;;;;;5031154;28;20022;-80
2023/08/06 02:38:11;;;;;;;7.70;2.47;;;11.60;99.90;;;;;;5031820;28;20083;-80
2023/08/06 02:40:42;;;;;;;4.13;2.17;;;11.60;99.90;;;;;;5031338;28;20021;-80
2023/08/06 02:43:08;;;;;;;4.50;2.15;;;11.60;99.90;;;;;;5031548;28;20025;-81
2023/08/06 02:45:33;;;;;;;5.10;2.85;;;11.60;99.90;;;;;;5031052;28;20032;-78
2023/08/06 02:47:59;;;;;;;5.95;2.70;;;11.60;99.90;;;;;;5030869;28;20048;-79
2023/08/06 02:50:25;;;;;;;3.22;1.90;;;11.60;99.90;;;;;;5030118;28;20040;-81
2023/08/06 02:52:50;;;;;;;7.57;2.53;;;11.50;99.90;;;;;;5029777;28;20413;-82
2023/08/06 02:55:16;;;;;;;8.68;3.10;;;11.50;99.90;;;;;;5031357;28;20471;-80
2023/08/06 02:57:42;;;;;;;4.70;2.60;;;11.50;99.90;;;;;;5031125;28;20030;-80
2023/08/06 03:02:41;;;;;;;4.15;2.70;;;11.40;99.90;;;;;;5010661;28;20073;-90
2023/08/06 03:05:07;;;;;;;9.32;2.42;;;11.40;99.90;;;;;;5014203;28;20439;-91
2023/08/06 03:07:33;;;;;;;3.65;2.33;;;11.40;99.90;;;;;;5012700;28;20425;-87
2023/08/06 03:10:01;;;;;;;3.03;2.10;;;11.40;99.90;;;;;;5013585;28;20022;-89
2023/08/06 03:12:27;;;;;;;3.67;2.30;;;11.40;99.90;;;;;;5020830;28;20048;-90
2023/08/06 03:14:52;;;;;;;7.05;3.03;;;11.40;99.90;;;;;;5020523;28;20033;-92
2023/08/06 03:17:18;;;;;;;5.97;2.85;;;11.30;99.90;;;;;;5013313;28;20359;-89
2023/08/06 03:19:44;;;;;;;7.50;2.35;;;11.30;99.90;;;;;;5013986;28;20064;-91
2023/08/06 03:22:09;;;;;;;5.03;2.45;;;11.30;99.90;;;;;;5020905;28;20084;-88
2023/08/06 03:24:35;;;;;;;3.53;2.05;;;11.30;99.90;;;;;;5013896;28;20089;-89
2023/08/06 03:27:00;;;;;;;5.45;2.28;;;11.30;99.90;;;;;;5012238;28;20034;-88
2023/08/06 03:29:26;;;;;;;4.53;2.38;;;11.20;99.90;;;;;;5012271;28;20148;-90
2023/08/06 03:31:52;;;;;;;5.35;2.47;;;11.20;99.90;;;;;;5012541;28;20053;-88
2023/08/06 03:34:18;;;;;;;7.70;2.67;;;11.20;99.90;;;;;;5013853;28;20013;-90
2023/08/06 03:36:44;;;;;;;7.80;2.60;;;11.20;99.90;;;;;;5013618;28;20034;-90
2023/08/06 03:39:10;;;;;;;4.03;2.58;;;11.20;99.90;;;;;;5013166;28;20060;-87
2023/08/06 03:41:35;;;;;;;5.65;2.60;;;11.20;99.90;;;;;;5012620;28;20022;-90
2023/08/06 03:44:03;;;;;;;4.93;2.13;;;11.20;99.90;;;;;;5012972;28;20083;-89
2023/08/06 03:46:29;;;;;;;5.65;2.42;;;11.20;99.90;;;;;;5020043;28;20052;-90
2023/08/06 03:48:55;;;;;;;5.85;2.40;;;11.20;99.90;;;;;;5013266;28;20057;-89
2023/08/06 03:51:20;;;;;;;4.40;2.38;;;11.20;99.90;;;;;;5013172;28;20092;-88
2023/08/06 03:53:46;;;;;;;3.97;2.30;;;11.10;99.90;;;;;;5012196;28;20026;-90
2023/08/06 03:56:12;;;;;;;7.75;3.05;;;11.20;99.90;;;;;;5019648;28;20029;-88
2023/08/06 03:58:37;;;;;;;6.25;2.40;;;11.10;99.90;;;;;;5012638;28;20072;-87
2023/08/06 04:01:03;;;;;;;4.68;2.08;;;11.10;99.90;;;;;;5036763;23;20271;-80
2023/08/06 04:03:29;;;;;;;8.55;2.65;;;11.10;99.90;;;;;;5031216;28;20401;-80
2023/08/06 04:05:55;;;;;;;4.85;2.33;;;11.20;99.90;;;;;;5029863;28;20078;-83
2023/08/06 04:08:20;;;;;;;4.70;1.95;;;11.10;99.90;;;;;;5029900;28;20033;-83
2023/08/06 04:10:50;;;;;;;4.28;2.75;;;11.10;99.90;;;;;;5031001;28;20544;-79
2023/08/06 04:13:16;;;;;;;7.30;3.20;;;11.10;99.90;;;;;;5028652;28;20113;-83
2023/08/06 04:15:42;;;;;;;5.63;2.58;;;11.10;99.90;;;;;;5029503;28;20100;-83
2023/08/06 04:18:08;;;;;;;5.63;2.70;;;11.10;99.90;;;;;;5030468;28;20118;-81
2023/08/06 04:20:33;;;;;;;6.45;2.80;;;11.10;99.90;;;;;;5029626;28;20018;-80
2023/08/06 04:22:59;;;;;;;4.97;2.72;;;11.10;99.90;;;;;;5029742;28;20053;-80
2023/08/06 04:25:25;;;;;;;5.03;2.50;;;11.10;99.90;;;;;;5030178;28;20486;-80
2023/08/06 04:27:50;;;;;;;3.80;2.25;;;11.00;99.90;;;;;;5028708;28;20045;-82
2023/08/06 04:30:16;;;;;;;5.22;2.55;;;11.00;99.90;;;;;;5027978;28;20049;-80
2023/08/06 04:32:42;;;;;;;4.55;2.63;;;11.00;99.90;;;;;;5024699;28;20382;-83
2023/08/06 04:35:07;;;;;;;6.45;2.47;;;11.00;99.90;;;;;;5028931;28;20474;-80
2023/08/06 04:37:33;;;;;;;5.15;2.80;;;11.00;99.90;;;;;;5029760;28;20033;-82
2023/08/06 04:39:59;;;;;;;5.38;2.88;;;11.00;99.90;;;;;;5028379;28;20022;-82
2023/08/06 04:42:25;;;;;;;3.83;2.50;;;11.00;99.90;;;;;;5027349;28;20379;-80
2023/08/06 04:44:50;;;;;;;11.20;3.08;;;11.00;99.90;;;;;;5029557;28;20406;-82
2023/08/06 04:47:16;;;;;;;4.80;2.83;;;11.00;99.90;;;;;;5028571;28;20037;-81
2023/08/06 04:49:42;;;;;;;4.40;2.45;;;11.00;99.90;;;;;;5029524;28;20024;-82
2023/08/06 04:52:07;;;;;;;8.65;3.78;;;11.10;99.90;;;;;;5029495;28;20407;-81
2023/08/06 04:54:33;;;;;;;4.10;2.35;;;11.00;99.90;;;;;;5028950;28;20557;-81
2023/08/06 04:56:59;;;;;;;5.80;3.08;;;11.00;99.90;;;;;;5029472;28;20032;-79
2023/08/06 04:59:25;;;;;;;6.35;2.85;;;11.00;99.90;;;;;;5029557;28;20120;-82
2023/08/06 05:01:50;;;;;;;8.02;2.80;;;11.00;99.90;;;;;;5053241;23;20128;-87
2023/08/06 05:04:16;;;;;;;5.60;2.90;;;11.00;99.90;;;;;;5049922;28;20101;-89
2023/08/06 05:06:42;;;;;;;8.77;2.95;;;11.10;99.90;;;;;;5048884;28;20063;-89
2023/08/06 05:09:07;;;;;;;9.50;3.05;;;11.00;99.90;;;;;;5049184;28;20079;-87
2023/08/06 05:11:33;;;;;;;6.05;2.80;;;11.10;99.90;;;;;;5039017;28;20017;-87
2023/08/06 05:13:58;;;;;;;6.30;2.50;;;11.10;99.90;;;;;;5032979;28;20033;-88
2023/08/06 05:16:24;;;;;;;6.65;3.15;;;11.10;99.90;;;;;;5033627;28;20474;-87
2023/08/06 05:18:50;;;;;;;5.13;2.30;;;11.00;99.90;;;;;;5027800;28;20025;-87
2023/08/06 05:21:16;;;;;;;5.45;2.78;;;11.10;99.90;;;;;;5033764;28;20024;-86
2023/08/06 05:23:42;;;;;;;3.92;2.20;;;11.10;99.90;;;;;;5033158;28;20013;-88
2023/08/06 05:26:08;;;;;;;4.95;2.42;;;11.10;99.90;;;;;;5033786;28;20040;-88
2023/08/06 05:28:34;;;;;;;8.05;2.80;;;11.10;99.90;;;;;;5032943;28;20021;-89
2023/08/06 05:31:04;;;;;;;8.85;3.65;;;11.10;99.90;;;;;;5032464;28;20037;-87
2023/08/06 05:33:30;;;;;;;7.03;2.58;;;11.20;99.90;;;;;;5033412;28;20026;-87
2023/08/06 05:35:55;;;;;;;6.90;2.80;;;11.20;99.90;;;;;;5033675;28;20022;-87
2023/08/06 05:38:21;;;;;;;4.03;2.35;;;11.30;99.90;;;;;;5033604;28;20108;-87
2023/08/06 05:40:47;;;;;;;7.63;2.72;;;11.20;99.90;;;;;;5034123;28;20030;-88
2023/08/06 05:43:13;;;;;;;8.15;2.78;;;11.30;99.90;;;;;;5032309;28;20029;-86
2023/08/06 05:45:38;;;;;;;4.05;2.28;;;11.40;99.90;;;;;;5033847;28;20143;-87
2023/08/06 05:48:04;;;;;;;5.95;3.40;;;11.40;99.90;;;;;;5033314;28;20436;-89
2023/08/06 05:50:30;;;;;;;5.45;2.63;;;11.40;99.90;;;;;;5033320;28;20022;-87
2023/08/06 05:52:55;;;;;;;7.45;2.40;;;11.40;99.90;;;;;;5033721;28;20108;-87
2023/08/06 05:55:21;;;;;;;6.50;2.67;;;11.40;99.90;;;;;;5032616;28;20413;-88
2023/08/06 05:57:47;;;;;;;6.53;2.83;;;11.50;99.90;;;;;;5032450;28;20032;-89
2023/08/06 06:02:51;;;;;;;6.18;2.78;;;11.60;99.90;;;;;;5046087;28;20049;-80
2023/08/06 06:05:16;;;;;;;5.88;2.80;;;11.60;99.90;;;;;;5051247;28;20048;-82
2023/08/06 06:07:42;;;;;;;4.47;2.60;;;11.60;99.90;;;;;;5045163;28;20036;-81
2023/08/06 06:10:08;;;;;;;3.75;2.30;;;11.60;99.90;;;;;;5050576;28;20621;-82
2023/08/06 06:12:34;;;;;;;3.33;2.50;;;11.70;99.90;;;;;;5032720;28;20524;-80
2023/08/06 06:15:00;;;;;;;8.63;2.78;;;11.80;99.90;;;;;;5031923;28;20021;-82
2023/08/06 06:17:27;;;;;;;8.55;2.35;;;12.00;99.90;;;;;;5031722;28;20013;-82
2023/08/06 06:19:52;;;;;;;4.82;2.33;;;12.20;99.90;;;;;;5032246;28;20021;-81
2023/08/06 06:22:18;;;;;;;4.35;2.25;;;12.40;99.90;;;;;;5031315;28;20155;-80
2023/08/06 06:24:44;;;;;;;4.43;2.33;;;12.50;99.90;;;;;;5031789;28;20502;-80
2023/08/06 06:27:09;;;;;;;3.15;2.17;;;12.50;99.90;;;;;;5031937;28;20505;-81
2023/08/06 06:29:35;;;;;;;5.25;2.47;;;12.60;99.90;;;;;;5031835;28;20144;-82
2023/08/06 06:32:01;;;;;;;3.85;2.10;;;12.60;99.90;;;;;;5028032;28;20064;-80
2023/08/06 06:34:26;;;;;;;4.35;2.60;;;12.60;99.90;;;;;;5032158;28;20017;-84
2023/08/06 06:36:52;;;;;;;4.30;2.25;;;12.50;99.90;;;;;;5031224;28;20079;-81
2023/08/06 06:39:18;;;;;;;4.30;2.20;;;12.60;99.90;;;;;;5031629;28;20025;-81
2023/08/06 06:41:44;;;;;;;7.25;2.50;;;12.50;99.90;;;;;;5031865;28;20547;-81
2023/08/06 06:44:10;;;;;;;5.68;2.25;;;12.50;99.90;;;;;;5031331;28;20021;-82
2023/08/06 06:46:35;;;;;;;6.43;2.40;;;12.60;99.90;;;;;;5031365;28;20084;-81
2023/08/06 06:49:01;;;;;;;3.15;2.28;;;12.60;99.90;;;;;;5030330;28;20025;-82
2023/08/06 06:51:27;;;;;;;10.68;2.30;;;12.70;99.90;;;;;;5030399;28;20484;-82
2023/08/06 06:53:52;;;;;;;3.35;2.33;;;12.70;99.90;;;;;;5030804;28;20026;-80
2023/08/06 06:56:18;;;;;;;4.63;2.50;;;12.80;99.90;;;;;;5029841;28;20021;-81
2023/08/06 06:58:43;;;;;;;4.53;2.42;;;12.80;99.90;;;;;;5030217;28;20025;-81
2023/08/06 07:01:11;;;;;;;8.85;2.55;;;12.80;99.90;;;;;;5058647;22;20440;-88
2023/08/06 07:03:37;;;;;;;5.22;2.50;;;12.90;99.90;;;;;;5032177;28;20013;-89
2023/08/06 07:06:03;;;;;;;3.95;2.20;;;13.00;99.90;;;;;;5033270;28;20030;-89
2023/08/06 07:08:29;;;;;;;4.55;2.05;;;13.00;99.90;;;;;;5032125;28;20033;-88
2023/08/06 07:11:06;;;;;;;4.38;2.22;;;13.10;99.90;;;;;;5031789;28;20034;-87
2023/08/06 07:13:32;;;;;;;3.97;2.10;;;13.20;99.90;;;;;;5021095;28;20017;-88
2023/08/06 07:15:58;;;;;;;3.30;2.00;;;13.20;99.90;;;;;;5032195;28;20030;-88
2023/08/06 07:18:24;;;;;;;4.45;2.47;;;13.30;99.90;;;;;;5032471;28;20522;-87
2023/08/06 07:20:51;;;;;;;3.80;2.30;;;13.30;99.90;;;;;;5030892;28;20079;-87
2023/08/06 07:23:17;;;;;;;5.80;2.45;;;13.40;99.90;;;;;;5027783;28;20033;-88
2023/08/06 07:25:42;;;;;;;4.00;2.28;;;13.50;99.90;;;;;;5018808;28;20501;-86
2023/08/06 07:28:09;;;;;;;4.30;2.15;;;13.50;99.90;;;;;;5020962;28;20053;-88
2023/08/06 07:30:39;;;;;;;5.05;2.20;;;13.60;99.90;;;;;;5031015;28;20462;-87
2023/08/06 07:33:04;;;;;;;4.00;2.42;;;13.60;99.90;;;;;;5029241;28;20144;-88
2023/08/06 07:35:30;;;;;;;4.70;2.38;;;13.70;99.90;;;;;;5031223;28;20097;-87
2023/08/06 07:37:55;;;;;;;5.18;2.08;;;13.70;99.90;;;;;;5031476;28;20029;-90
2023/08/06 07:40:21;;;;;;;5.43;2.75;;;13.70;99.90;;;;;;5031627;28;20017;-89
2023/08/06 07:42:47;;;;;;;4.18;2.50;;;13.90;99.90;;;;;;5031654;28;20147;-90
2023/08/06 07:45:12;;;;;;;5.20;2.30;;;14.00;99.90;;;;;;5017528;28;20044;-89
2023/08/06 07:47:38;;;;;;;4.30;2.60;;;14.00;99.90;;;;;;5030579;28;20025;-89
2023/08/06 07:50:04;;;;;;;5.07;2.53;;;14.00;99.90;;;;;;5024595;28;20026;-87
2023/08/06 07:52:29;;;;;;;4.80;2.40;;;14.10;99.90;;;;;;5031958;28;20029;-89
2023/08/06 07:54:55;;;;;;;4.93;2.50;;;14.20;99.90;;;;;;5022923;28;20025;-88
2023/08/06 07:57:21;;;;;;;4.07;2.03;;;14.30;99.90;;;;;;5028461;28;20101;-90
2023/08/06 07:59:46;;;;;;;4.60;2.58;;;14.40;99.90;;;;;;5031646;28;20466;-91
2023/08/06 08:02:12;;;;;;;5.20;2.13;;;14.40;99.90;;;;;;5050741;23;20481;-80
2023/08/06 08:04:38;;;;;;;3.95;2.70;;;14.50;99.90;;;;;;5030931;28;20048;-80
2023/08/06 08:07:04;;;;;;;5.35;2.25;;;14.60;99.90;;;;;;5029265;28;20046;-80
2023/08/06 08:09:29;;;;;;;5.18;2.58;;;14.60;99.90;;;;;;5030785;28;20559;-80
2023/08/06 08:11:55;;;;;;;3.05;2.05;;;14.70;99.90;;;;;;5029751;28;20096;-83
2023/08/06 08:14:21;;;;;;;4.45;2.40;;;14.70;99.90;;;;;;5029984;28;20585;-82
2023/08/06 08:16:46;;;;;;;6.18;2.20;;;14.70;99.90;;;;;;5029216;28;20482;-83
2023/08/06 08:19:12;;;;;;;5.05;2.20;;;14.80;99.90;;;;;;5026915;28;20041;-82
2023/08/06 08:21:37;;;;;;;5.03;2.60;;;14.90;99.90;;;;;;5021066;28;20516;-82
2023/08/06 08:24:04;;;;;;;5.63;2.40;;;14.90;99.90;;;;;;5030004;28;20017;-82
2023/08/06 08:26:29;;;;;;;3.10;2.00;;;15.00;99.90;;;;;;5025421;28;20652;-81
2023/08/06 08:28:56;;;;;;;8.05;3.47;;;15.00;99.90;;;;;;5029231;28;20100;-81
2023/08/06 08:31:22;;;;;;;6.03;2.30;;;15.10;99.90;;;;;;5024566;28;20022;-82
2023/08/06 08:33:48;;;;;;;7.15;2.60;;;15.20;99.90;;;;;;5029093;28;20018;-82
2023/08/06 08:36:13;;;;;;;4.53;2.42;;;15.30;99.90;;;;;;5023677;28;20033;-81
2023/08/06 08:38:39;;;;;;;4.70;2.20;;;15.40;99.90;;;;;;5029053;28;20493;-82
2023/08/06 08:41:05;;;;;;;4.20;1.90;;;15.50;99.90;;;;;;5026106;28;20378;-84
2023/08/06 08:43:31;;;;;;;4.68;1.73;;;15.70;99.90;;;;;;5029748;28;20029;-83
2023/08/06 08:46:01;;;;;;;4.05;1.98;;;16.10;99.40;;;;;;5029286;28;20042;-84
2023/08/06 08:48:27;;;;;;;6.97;2.22;;;16.60;98.80;;;;;;5029156;28;20030;-83
2023/08/06 08:50:53;;;;;;;3.95;2.20;;;17.20;97.30;;;;;;5031518;28;20029;-83
2023/08/06 08:53:21;;;;;;;3.63;2.20;;;17.50;95.20;;;;;;5026544;28;20017;-85
2023/08/06 08:55:49;;;;;;;3.80;2.05;;;17.70;94.70;;;;;;5030261;28;20018;-81
2023/08/06 08:58:15;;;;;;;3.35;1.92;;;17.70;95.70;;;;;;5029874;28;20034;-82
2023/08/06 09:00:42;;;;;;;4.18;1.95;;;17.80;95.50;;;;;;5046206;23;20018;-90
2023/08/06 09:03:08;;;;;;;7.05;2.30;;;17.90;94.70;;;;;;5034902;28;20029;-87
2023/08/06 09:05:34;;;;;;;4.30;2.00;;;17.70;93.30;;;;;;5039880;28;20056;-88
2023/08/06 09:08:03;;;;;;;3.33;2.08;;;17.90;93.80;;;;;;5034096;28;20041;-88
2023/08/06 09:10:29;;;;;;;3.47;2.00;;;18.30;92.80;;;;;;5035126;28;20379;-89
2023/08/06 09:12:56;;;;;;;2.70;1.80;;;18.80;91.60;;;;;;5034208;28;20226;-88
2023/08/06 09:15:26;;;;;;;3.42;1.80;;;19.60;90.90;;;;;;5033855;28;20021;-89
2023/08/06 09:17:55;;;;;;;4.43;2.20;;;19.80;90.50;;;;;;5027346;28;20025;-90
2023/08/06 09:20:21;;;;;;;4.10;2.13;;;19.70;89.70;;;;;;5033890;28;20627;-89
2023/08/06 09:22:48;;;;;;;3.05;2.20;;;19.50;88.30;;;;;;5033161;28;20067;-85
2023/08/06 09:25:24;;;;;;;2.83;2.00;;;19.40;89.10;;;;;;5020223;28;20113;-89
2023/08/06 09:27:51;;;;;;;4.05;2.13;;;19.60;88.80;;;;;;5033828;28;20040;-89
2023/08/06 09:30:39;;;;;;;2.53;1.90;;;19.60;87.90;;;;;;5034136;28;20397;-88
2023/08/06 09:33:14;;;;;;;2.55;1.88;;;19.40;87.60;;;;;;5019844;28;20025;-89
2023/08/06 09:35:39;;;;;;;3.13;1.60;;;19.70;86.40;;;;;;5034282;28;20048;-89
2023/08/06 09:38:10;;;;;;;4.15;2.20;;;20.50;83.20;;;;;;5034245;28;20061;-88
2023/08/06 09:40:36;;;;;;;3.20;1.80;;;21.70;81.50;;;;;;5032208;28;20035;-85
2023/08/06 09:43:02;;;;;;;3.67;1.67;;;23.10;76.30;;;;;;5033553;28;20037;-86
2023/08/06 09:45:36;;;;;;;1.70;1.60;;;24.10;70.10;;;;;;5022593;28;20424;-86
2023/08/06 09:48:09;;;;;;;4.10;1.50;;;25.20;66.10;;;;;;5000784;28;20026;-88
2023/08/06 09:50:37;;;;;;;4.25;1.60;;;25.20;64.60;;;;;;5003548;28;20043;-89
2023/08/06 09:53:04;;;;;;;3.80;1.60;;;25.70;61.40;;;;;;5004612;28;20078;-87
2023/08/06 09:55:30;;;;;;;2.35;1.35;;;25.40;60.20;;;;;;5023282;28;20026;-86
2023/08/06 09:57:56;;;;;;;3.10;1.40;;;25.70;60.30;;;;;;5024556;28;20466;-87
2023/08/06 10:00:23;;;;;;;1.90;1.35;;;26.40;60.30;;;;;;5030774;28;20030;-88
2023/08/06 10:02:53;;;;;;;2.30;1.40;;;26.30;56.00;;;;;;5052881;22;20034;-85
2023/08/06 10:05:19;;;;;;;4.40;1.38;;;26.60;55.60;;;;;;5032876;28;20022;-84
2023/08/06 10:07:46;;;;;;;3.03;1.38;;;27.40;55.60;;;;;;5032023;28;20026;-86
2023/08/06 10:10:11;;;;;;;3.13;1.23;;;26.60;53.70;;;;;;5028347;28;20112;-86
2023/08/06 10:12:46;;;;;;;2.45;1.20;;;25.30;58.00;;;;;;5025652;28;20116;-83
2023/08/06 10:15:16;;;;;;;1.77;1.10;;;24.50;60.50;;;;;;5022917;28;20020;-85
2023/08/06 10:17:43;;;;;;;1.75;1.30;;;24.30;60.80;;;;;;5031269;28;20018;-85
2023/08/06 10:20:10;;;;;;;2.90;1.52;;;24.90;61.70;;;;;;5032773;28;20018;-83
2023/08/06 10:22:35;;;;;;;3.58;1.45;;;25.20;59.20;;;;;;5032408;28;20025;-83
2023/08/06 10:25:05;;;;;;;1.58;1.10;;;24.40;61.20;;;;;;5025605;28;20502;-84
2023/08/06 10:27:34;;;;;;;1.45;1.13;;;24.80;62.70;;;;;;5032839;28;20496;-84
2023/08/06 10:30:30;;;;;;;1.75;1.05;;;26.10;59.10;;;;;;5032237;28;20067;-84
2023/08/06 10:33:03;;;;;;;1.83;1.25;;;27.20;53.30;;;;;;5029723;28;20031;-86
2023/08/06 10:35:44;;;;;;;2.28;1.33;;;28.50;53.70;;;;;;5032524;28;20025;-86
2023/08/06 10:38:10;;;;;;;3.60;1.05;;;28.70;49.00;;;;;;5020566;28;20029;-84
2023/08/06 10:40:39;;;;;;;3.20;1.30;;;27.70;51.40;;;;;;5032668;28;20021;-87
2023/08/06 10:43:10;;;;;;;1.90;1.17;;;26.00;50.00;;;;;;5032105;28;20071;-87
2023/08/06 10:45:37;;;;;;;2.92;1.50;;;24.40;54.40;;;;;;5022632;28;21395;-87
2023/08/06 10:48:04;;;;;;;1.75;1.38;;;24.20;59.10;;;;;;5022881;28;20030;-85
2023/08/06 10:50:31;;;;;;;2.15;1.23;;;25.40;57.10;;;;;;5030621;28;20101;-86
2023/08/06 10:52:57;;;;;;;2.13;1.13;;;26.70;55.00;;;;;;5031365;28;20025;-83
2023/08/06 10:55:28;;;;;;;4.03;1.25;;;27.50;51.00;;;;;;5031704;28;20021;-86
2023/08/06 10:57:54;;;;;;;1.93;1.20;;;26.80;50.80;;;;;;5023522;28;20032;-82
2023/08/06 11:00:22;;;;;;;2.03;1.27;;;27.00;51.70;;;;;;5030085;28;20030;-83
2023/08/06 11:02:49;;;;;;;2.53;1.27;;;27.50;48.40;;;;;;5026582;28;20036;-83
2023/08/06 11:05:14;;;;;;;2.00;1.42;;;27.90;47.40;;;;;;5031637;28;20060;-84
2023/08/06 11:07:40;;;;;;;3.03;1.02;;;28.60;47.20;;;;;;5032131;28;20061;-84
2023/08/06 11:10:10;;;;;;;6.50;1.60;;;29.10;48.20;;;;;;5031273;28;20026;-87
2023/08/06 11:12:36;;;;;;;2.05;1.23;;;29.90;45.80;;;;;;5030957;28;20108;-83
2023/08/06 11:15:03;;;;;;;2.60;1.08;;;30.60;44.90;;;;;;5031364;28;20075;-84
2023/08/06 11:17:31;;;;;;;3.50;0.98;;;31.40;46.00;;;;;;5031922;28;20029;-83
2023/08/06 11:19:59;;;;;;;1.60;1.02;;;31.70;41.70;;;;;;5031626;28;20026;-83
2023/08/06 11:22:25;;;;;;;1.27;1.00;;;31.40;43.00;;;;;;5024858;28;20104;-84
2023/08/06 11:24:50;;;;;;;1.35;0.98;;;31.20;39.60;;;;;;5031790;28;20124;-86
2023/08/06 11:27:17;;;;;;;2.35;1.20;;;31.00;40.60;;;;;;5031538;28;20390;-85
2023/08/06 11:29:43;;;;;;;2.53;1.10;;;30.90;39.00;;;;;;5031178;28;20024;-86
2023/08/06 11:32:10;;;;;;;2.20;1.13;;;30.60;41.60;;;;;;5069776;22;20037;-91
2023/08/06 11:34:37;;;;;;;3.10;1.08;;;31.20;40.80;;;;;;5055055;28;20021;-92
2023/08/06 11:37:06;;;;;;;1.27;1.00;;;32.20;42.60;;;;;;5054818;28;20485;-89
2023/08/06 11:39:36;;;;;;;2.85;1.30;;;31.40;38.70;;;;;;5057933;28;20028;-92
2023/08/06 11:42:06;;;;;;;1.90;1.03;;;31.90;43.00;;;;;;5040144;28;20022;-91
2023/08/06 11:44:34;;;;;;;1.95;0.82;;;31.60;40.70;;;;;;5032345;28;20021;-87
2023/08/06 11:47:02;;;;;;;2.47;1.00;;;31.10;38.70;;;;;;5032100;28;20041;-88
2023/08/06 11:49:48;;;;;;;3.78;1.10;;;30.10;39.80;;;;;;5032043;28;20025;-89
2023/08/06 11:52:25;;;;;;;1.00;0.90;;;29.20;44.30;;;;;;5032173;28;20028;-88
2023/08/06 11:55:10;;;;;;;3.10;1.08;;;28.10;42.10;;;;;;5031964;28;20096;-89
2023/08/06 11:57:42;;;;;;;1.17;0.98;;;27.30;45.20;;;;;;5030970;28;20017;-88
2023/08/06 12:00:10;;;;;;;1.75;1.00;;;26.70;45.20;;;;;;5030954;28;20018;-87
2023/08/06 12:02:38;;;;;;;1.27;0.80;;;27.10;47.60;;;;;;5030713;28;20022;-91
2023/08/06 12:05:11;;;;;;;3.15;1.02;;;26.90;44.60;;;;;;5030817;28;20564;-89
2023/08/06 12:07:39;;;;;;;1.42;1.00;;;26.40;47.60;;;;;;5029720;28;20025;-88
2023/08/06 12:10:05;;;;;;;1.83;1.00;;;26.20;48.50;;;;;;5030964;28;20752;-88
2023/08/06 12:12:31;;;;;;;2.13;1.05;;;26.50;48.00;;;;;;5032163;28;20068;-87
2023/08/06 12:14:56;;;;;;;1.55;1.00;;;26.20;47.10;;;;;;5031206;28;20022;-90
2023/08/06 12:17:24;;;;;;;1.90;0.80;;;26.00;47.10;;;;;;5031996;28;20030;-89
2023/08/06 12:19:50;;;;;;;2.55;1.15;;;26.20;47.60;;;;;;5032096;28;20014;-88
2023/08/06 12:22:16;;;;;;;1.83;1.20;;;25.80;48.60;;;;;;5032997;28;20017;-89
2023/08/06 12:24:46;;;;;;;3.03;1.08;;;25.40;50.90;;;;;;5036991;28;20025;-91
2023/08/06 12:27:12;;;;;;;2.03;1.27;;;26.80;52.10;;;;;;5036425;28;20040;-87
2023/08/06 12:29:45;;;;;;;1.65;1.10;;;27.30;49.00;;;;;;5023590;28;20120;-91
2023/08/06 12:32:11;;;;;;;3.25;0.90;;;27.90;47.70;;;;;;5056458;22;20044;-85
2023/08/06 12:34:41;;;;;;;1.85;0.80;;;28.20;48.40;;;;;;5034002;28;20022;-85
2023/08/06 12:37:08;;;;;;;1.38;0.90;;;28.30;47.30;;;;;;5035353;28;20532;-84
2023/08/06 12:39:34;;;;;;;1.90;1.10;;;28.30;46.10;;;;;;5035066;28;20072;-85
2023/08/06 12:42:01;;;;;;;3.00;1.58;;;28.00;44.50;;;;;;5033599;28;20017;-86
2023/08/06 12:44:27;;;;;;;1.83;1.05;;;28.30;46.40;;;;;;5033743;28;20022;-88
2023/08/06 12:46:53;;;;;;;0.75;0.75;;;28.00;45.70;;;;;;5029585;28;20444;-85
2023/08/06 12:49:21;;;;;;;1.35;0.82;;;27.20;45.50;;;;;;5032786;28;21480;-84